createdAt,value
2022-10-01T00:02:05.242Z,5.20
2022-10-01T00:04:31.692Z,7.30
2022-10-01T00:07:00.236Z,5.43
2022-10-01T00:09:26.639Z,6.10
2022-10-01T00:11:53.388Z,4.78
2022-10-01T00:14:19.887Z,5.60
2022-10-01T00:16:46.178Z,6.15
2022-10-01T00:19:14.747Z,6.07
2022-10-01T00:21:41.022Z,4.43
2022-10-01T00:24:07.384Z,6.47
2022-10-01T00:26:35.150Z,5.55
2022-10-01T00:29:02.571Z,6.07
2022-10-01T00:31:29.717Z,5.95
2022-10-01T00:33:58.227Z,5.85
2022-10-01T00:36:24.800Z,4.90
2022-10-01T00:38:51.073Z,5.30
2022-10-01T00:41:18.054Z,5.25
2022-10-01T00:43:49.671Z,5.20
2022-10-01T00:46:19.167Z,5.65
2022-10-01T00:49:04.198Z,5.05
2022-10-01T00:51:33.067Z,5.60
2022-10-01T00:54:03.030Z,4.78
2022-10-01T00:56:30.211Z,4.38
2022-10-01T00:58:56.842Z,9.45
2022-10-01T01:01:24.632Z,4.80
2022-10-01T01:03:51.101Z,5.38
2022-10-01T01:06:17.424Z,4.70
2022-10-01T01:08:43.788Z,5.72
2022-10-01T01:11:12.861Z,4.80
2022-10-01T01:14:05.430Z,5.65
2022-10-01T01:16:40.205Z,5.35
2022-10-01T01:19:20.484Z,5.13
2022-10-01T01:21:48.844Z,6.50
2022-10-01T01:24:36.345Z,5.00
2022-10-01T01:27:21.660Z,5.82
2022-10-01T01:29:54.114Z,3.75
2022-10-01T01:32:26.952Z,4.72
2022-10-01T01:34:55.278Z,3.65
2022-10-01T01:37:27.745Z,5.05
2022-10-01T01:39:56.200Z,5.57
2022-10-01T01:42:26.318Z,4.25
2022-10-01T01:44:54.356Z,4.45
2022-10-01T01:47:21.919Z,3.72
2022-10-01T01:49:50.988Z,4.43
2022-10-01T01:52:17.355Z,3.35
2022-10-01T01:54:44.525Z,3.55
2022-10-01T01:57:13.100Z,3.25
2022-10-01T01:59:40.390Z,3.60
2022-10-01T02:02:08.647Z,3.20
2022-10-01T02:04:40.464Z,3.17
2022-10-01T02:07:06.695Z,3.17
2022-10-01T02:09:39.605Z,3.83
2022-10-01T02:12:20.748Z,3.17
2022-10-01T02:14:54.723Z,2.63
2022-10-01T02:17:25.753Z,3.13
2022-10-01T02:19:59.110Z,4.00
2022-10-01T02:22:36.657Z,2.97
2022-10-01T02:25:04.091Z,3.35
2022-10-01T02:27:32.446Z,2.50
2022-10-01T02:30:01.635Z,2.92
2022-10-01T02:32:28.928Z,3.70
2022-10-01T02:34:55.214Z,3.38
2022-10-01T02:37:23.181Z,6.00
2022-10-01T02:39:50.511Z,2.50
2022-10-01T02:42:18.627Z,2.38
2022-10-01T02:44:45.428Z,2.72
2022-10-01T02:47:14.558Z,2.58
2022-10-01T02:49:43.747Z,2.28
2022-10-01T02:52:13.143Z,2.78
2022-10-01T02:54:58.315Z,2.35
2022-10-01T02:57:27.472Z,3.42
2022-10-01T02:59:57.998Z,2.55
2022-10-01T03:02:28.816Z,2.80
2022-10-01T03:04:58.872Z,2.55
2022-10-01T03:07:26.019Z,2.80
2022-10-01T03:09:52.313Z,3.10
2022-10-01T03:12:18.758Z,2.83
2022-10-01T03:14:45.562Z,2.28
2022-10-01T03:17:12.606Z,2.28
2022-10-01T03:19:39.119Z,2.88
2022-10-01T03:22:05.403Z,2.70
2022-10-01T03:24:31.670Z,3.10
2022-10-01T03:26:58.329Z,3.10
2022-10-01T03:29:25.244Z,2.75
2022-10-01T03:31:52.014Z,2.72
2022-10-01T03:34:18.611Z,2.72
2022-10-01T03:36:45.014Z,2.28
2022-10-01T03:39:11.356Z,2.17
2022-10-01T03:41:37.795Z,2.80
2022-10-01T03:44:04.575Z,2.85
2022-10-01T03:46:31.187Z,2.17
2022-10-01T03:48:58.946Z,2.67
2022-10-01T03:51:25.250Z,2.60
2022-10-01T03:53:51.537Z,2.38
2022-10-01T03:56:18.473Z,2.03
2022-10-01T03:58:44.739Z,2.70
2022-10-01T04:01:11.017Z,1.98
2022-10-01T04:03:37.364Z,2.47
2022-10-01T04:06:03.803Z,2.55
2022-10-01T04:08:30.051Z,2.25
2022-10-01T04:10:56.307Z,2.35
2022-10-01T04:13:22.568Z,2.08
2022-10-01T04:15:48.971Z,1.88
2022-10-01T04:18:17.323Z,2.10
2022-10-01T04:20:43.582Z,2.20
2022-10-01T04:23:09.911Z,2.15
2022-10-01T04:25:36.208Z,2.40
2022-10-01T04:28:03.909Z,2.53
2022-10-01T04:30:31.457Z,2.75
2022-10-01T04:32:58.148Z,3.15
2022-10-01T04:35:24.707Z,2.33
2022-10-01T04:38:05.443Z,3.22
2022-10-01T04:40:35.875Z,2.75
2022-10-01T04:43:02.880Z,2.28
2022-10-01T04:45:29.269Z,3.15
2022-10-01T04:47:55.883Z,2.83
2022-10-01T04:50:23.382Z,2.78
2022-10-01T04:52:49.828Z,3.03
2022-10-01T04:55:16.669Z,2.63
2022-10-01T04:57:43.953Z,2.47
2022-10-01T05:00:11.922Z,4.03
2022-10-01T05:02:38.382Z,2.60
2022-10-01T05:05:05.911Z,2.60
2022-10-01T05:07:32.992Z,2.72
2022-10-01T05:10:00.452Z,3.20
2022-10-01T05:12:27.703Z,3.50
2022-10-01T05:14:54.891Z,3.25
2022-10-01T05:17:21.803Z,4.18
2022-10-01T05:19:48.526Z,4.25
2022-10-01T05:22:15.137Z,4.05
2022-10-01T05:24:41.642Z,3.95
2022-10-01T05:27:12.103Z,5.03
2022-10-01T05:29:38.455Z,5.35
2022-10-01T05:32:04.788Z,4.68
2022-10-01T05:34:31.101Z,7.05
2022-10-01T05:36:57.359Z,4.80
2022-10-01T05:39:23.927Z,5.63
2022-10-01T05:41:50.820Z,4.95
2022-10-01T05:44:17.088Z,6.38
2022-10-01T05:46:43.672Z,6.22
2022-10-01T05:49:10.588Z,7.13
2022-10-01T05:51:37.251Z,6.90
2022-10-01T05:54:04.371Z,7.18
2022-10-01T05:56:30.894Z,6.45
2022-10-01T05:58:57.145Z,7.07
2022-10-01T06:01:23.510Z,7.13
2022-10-01T06:03:53.052Z,7.97
2022-10-01T06:06:23.042Z,6.70
2022-10-01T06:08:49.834Z,8.77
2022-10-01T06:11:16.977Z,8.13
2022-10-01T06:13:45.085Z,9.82
2022-10-01T06:16:11.796Z,8.23
2022-10-01T06:18:38.114Z,8.77
2022-10-01T06:21:04.921Z,7.97
2022-10-01T06:23:31.394Z,8.95
2022-10-01T06:25:59.637Z,8.27
2022-10-01T06:28:26.025Z,8.48
2022-10-01T06:30:52.318Z,8.27
2022-10-01T06:33:19.198Z,8.68
2022-10-01T06:35:47.214Z,8.35
2022-10-01T06:38:14.127Z,8.23
2022-10-01T06:40:40.918Z,8.63
2022-10-01T06:43:10.131Z,9.05
2022-10-01T06:45:40.589Z,8.45
2022-10-01T06:48:07.218Z,8.15
2022-10-01T06:50:33.941Z,8.70
2022-10-01T06:53:00.963Z,7.82
2022-10-01T06:55:28.931Z,7.50
2022-10-01T06:57:56.076Z,7.65
2022-10-01T07:00:22.736Z,8.75
2022-10-01T07:02:49.103Z,7.55
2022-10-01T07:05:16.036Z,8.45
2022-10-01T07:07:43.416Z,9.25
2022-10-01T07:10:10.381Z,8.77
2022-10-01T07:12:36.817Z,9.68
2022-10-01T07:15:03.993Z,10.38
2022-10-01T07:17:30.275Z,12.05
2022-10-01T07:19:56.530Z,10.80
2022-10-01T07:22:24.174Z,11.90
2022-10-01T07:24:51.228Z,9.90
2022-10-01T07:27:18.384Z,9.52
2022-10-01T07:29:44.782Z,9.95
2022-10-01T07:32:11.037Z,9.43
2022-10-01T07:34:40.079Z,10.40
2022-10-01T07:37:06.755Z,8.98
2022-10-01T07:39:33.036Z,9.20
2022-10-01T07:41:59.303Z,9.63
2022-10-01T07:44:27.745Z,8.45
2022-10-01T07:46:54.087Z,8.65
2022-10-01T07:49:20.391Z,9.45
2022-10-01T07:51:48.613Z,9.40
2022-10-01T07:54:15.144Z,8.85
2022-10-01T07:56:41.651Z,7.25
2022-10-01T07:59:10.052Z,7.68
2022-10-01T08:01:37.374Z,7.68
2022-10-01T08:04:24.997Z,7.28
2022-10-01T08:06:52.368Z,8.02
2022-10-01T08:09:19.006Z,7.38
2022-10-01T08:11:45.609Z,7.32
2022-10-01T08:14:12.323Z,8.15
2022-10-01T08:16:40.936Z,9.45
2022-10-01T08:19:08.266Z,9.27
2022-10-01T08:21:36.264Z,9.48
2022-10-01T08:24:03.334Z,10.77
2022-10-01T08:26:29.931Z,10.00
2022-10-01T08:28:56.538Z,10.13
2022-10-01T08:31:22.833Z,11.18
2022-10-01T08:33:49.138Z,8.88
2022-10-01T08:36:16.832Z,8.85
2022-10-01T08:38:46.670Z,8.60
2022-10-01T08:41:30.084Z,9.00
2022-10-01T08:43:57.263Z,11.75
2022-10-01T08:46:26.238Z,12.50
2022-10-01T08:48:57.404Z,13.55
2022-10-01T08:51:23.865Z,13.15
2022-10-01T08:53:52.908Z,13.65
2022-10-01T08:56:24.644Z,12.77
2022-10-01T08:58:57.699Z,11.07
2022-10-01T09:01:24.190Z,13.23
2022-10-01T09:03:50.660Z,13.95
2022-10-01T09:06:22.401Z,14.07
2022-10-01T09:09:07.679Z,11.98
2022-10-01T09:11:34.151Z,11.88
2022-10-01T09:14:06.658Z,12.10
2022-10-01T09:16:51.120Z,11.00
2022-10-01T09:19:31.583Z,9.65
2022-10-01T09:21:59.006Z,8.85
2022-10-01T09:24:43.217Z,7.20
2022-10-01T09:27:17.455Z,7.90
2022-10-01T09:30:19.235Z,7.93
2022-10-01T09:32:49.102Z,6.82
2022-10-01T09:35:20.867Z,6.45
2022-10-01T09:37:57.781Z,6.85
2022-10-01T09:40:33.051Z,7.25
2022-10-01T09:45:25.743Z,5.25
2022-10-01T09:47:54.936Z,7.70
2022-10-01T09:50:25.251Z,5.47
2022-10-01T09:52:52.170Z,6.28
2022-10-01T09:55:22.662Z,5.18
2022-10-01T09:57:53.695Z,5.63
2022-10-01T10:00:24.199Z,6.35
2022-10-01T10:02:51.574Z,6.90
2022-10-01T10:05:25.155Z,5.60
2022-10-01T10:07:58.762Z,5.57
2022-10-01T10:10:29.629Z,6.18
2022-10-01T10:13:01.009Z,4.53
2022-10-01T10:15:28.175Z,5.18
2022-10-01T10:17:55.711Z,4.00
2022-10-01T10:20:38.143Z,4.68
2022-10-01T10:23:08.518Z,4.68
2022-10-01T10:25:34.878Z,4.63
2022-10-01T10:28:02.578Z,4.47
2022-10-01T10:30:29.131Z,4.68
2022-10-01T10:33:02.765Z,4.05
2022-10-01T10:35:29.308Z,4.10
2022-10-01T10:37:57.261Z,4.82
2022-10-01T10:40:29.283Z,4.68
2022-10-01T10:42:57.490Z,4.45
2022-10-01T10:45:30.891Z,3.30
2022-10-01T10:47:57.731Z,4.00
2022-10-01T10:50:29.095Z,4.60
2022-10-01T10:52:56.255Z,4.68
2022-10-01T10:55:22.827Z,4.28
2022-10-01T10:57:49.399Z,4.70
2022-10-01T11:00:17.180Z,4.95
2022-10-01T11:02:52.579Z,3.22
2022-10-01T11:05:20.654Z,4.53
2022-10-01T11:07:47.554Z,4.18
2022-10-01T11:10:19.979Z,4.55
2022-10-01T11:12:56.548Z,4.63
2022-10-01T11:15:49.442Z,3.95
2022-10-01T11:18:21.778Z,4.32
2022-10-01T11:21:06.952Z,3.28
2022-10-01T11:23:51.375Z,4.53
2022-10-01T11:26:36.902Z,3.03
2022-10-01T11:31:42.247Z,3.72
2022-10-01T11:34:17.563Z,5.40
2022-10-01T11:39:12.657Z,4.63
2022-10-01T11:41:41.669Z,4.35
2022-10-01T11:44:14.480Z,3.45
2022-10-01T11:46:45.121Z,4.43
2022-10-01T11:49:20.460Z,4.20
2022-10-01T11:54:15.657Z,3.35
2022-10-01T11:57:08.695Z,4.78
2022-10-01T11:59:36.502Z,5.80
2022-10-01T12:02:16.120Z,4.57
2022-10-01T12:04:45.995Z,3.90
2022-10-01T12:07:15.266Z,4.13
2022-10-01T12:09:50.440Z,4.30
2022-10-01T12:14:56.789Z,4.68
2022-10-01T12:17:44.213Z,4.47
2022-10-01T12:20:29.298Z,10.38
2022-10-01T12:22:56.327Z,4.45
2022-10-01T12:25:26.112Z,3.75
2022-10-01T12:27:57.522Z,2.70
2022-10-01T12:30:25.918Z,3.58
2022-10-01T12:32:52.139Z,3.67
2022-10-01T12:35:27.734Z,3.35
2022-10-01T12:37:58.258Z,3.75
2022-10-01T12:40:44.011Z,2.92
2022-10-01T12:45:45.354Z,4.25
2022-10-01T12:48:37.998Z,2.83
2022-10-01T12:51:22.414Z,6.30
2022-10-01T12:53:57.730Z,3.38
2022-10-01T12:58:57.042Z,5.25
2022-10-01T13:01:23.703Z,3.05
2022-10-01T13:04:14.803Z,4.82
2022-10-01T13:06:56.598Z,3.80
2022-10-01T13:09:22.874Z,4.05
2022-10-01T13:11:59.029Z,5.53
2022-10-01T13:14:25.406Z,2.75
2022-10-01T13:16:54.336Z,2.85
2022-10-01T13:19:21.531Z,2.67
2022-10-01T13:21:50.736Z,3.38
2022-10-01T13:24:20.088Z,3.63
2022-10-01T13:26:53.673Z,3.15
2022-10-01T13:29:29.814Z,3.20
2022-10-01T13:31:57.549Z,3.33
2022-10-01T13:34:34.844Z,3.00
2022-10-01T13:37:31.281Z,3.78
2022-10-01T13:39:58.171Z,3.63
2022-10-01T13:42:27.445Z,3.10
2022-10-01T13:44:58.510Z,3.35
2022-10-01T13:47:25.584Z,4.20
2022-10-01T13:49:57.038Z,3.60
2022-10-01T13:52:23.649Z,3.25
2022-10-01T13:54:51.208Z,3.15
2022-10-01T13:57:36.985Z,3.08
2022-10-01T14:00:21.206Z,4.22
2022-10-01T14:03:16.619Z,3.33
2022-10-01T14:05:43.127Z,3.38
2022-10-01T14:08:17.501Z,4.00
2022-10-01T14:11:03.941Z,4.32
2022-10-01T14:13:48.896Z,3.35
2022-10-01T14:16:16.854Z,2.83
2022-10-01T14:18:44.735Z,3.13
2022-10-01T14:21:28.366Z,3.45
2022-10-01T14:23:54.602Z,3.53
2022-10-01T14:26:27.014Z,3.50
2022-10-01T14:29:06.293Z,3.83
2022-10-01T14:31:32.651Z,3.63
2022-10-01T14:34:12.923Z,3.97
2022-10-01T14:39:19.379Z,3.20
2022-10-01T14:41:46.886Z,3.72
2022-10-01T14:44:29.948Z,3.92
2022-10-01T14:46:57.350Z,3.35
2022-10-01T14:49:25.168Z,3.72
2022-10-01T14:51:58.587Z,3.08
2022-10-01T14:54:25.150Z,3.20
2022-10-01T14:56:51.508Z,3.22
2022-10-01T14:59:24.331Z,4.47
2022-10-01T15:02:13.943Z,3.88
2022-10-01T15:04:45.335Z,5.80
2022-10-01T15:07:12.968Z,3.20
2022-10-01T15:09:39.263Z,4.18
2022-10-01T15:12:05.840Z,3.55
2022-10-01T15:14:32.198Z,3.20
2022-10-01T15:17:05.063Z,3.28
2022-10-01T15:19:32.087Z,3.50
2022-10-01T15:21:59.961Z,5.15
2022-10-01T15:24:41.250Z,4.10
2022-10-01T15:27:12.168Z,4.10
2022-10-01T15:29:39.042Z,6.07
2022-10-01T15:32:05.843Z,4.13
2022-10-01T15:34:32.466Z,3.55
2022-10-01T15:36:59.964Z,2.95
2022-10-01T15:39:29.869Z,3.63
2022-10-01T15:41:56.849Z,3.20
2022-10-01T15:44:42.767Z,3.28
2022-10-01T15:47:27.917Z,2.80
2022-10-01T15:50:15.998Z,3.75
2022-10-01T15:52:54.509Z,4.10
2022-10-01T15:55:23.295Z,3.40
2022-10-01T15:57:52.399Z,4.93
2022-10-01T16:00:23.208Z,4.60
2022-10-01T16:02:49.952Z,4.30
2022-10-01T16:05:18.023Z,3.83
2022-10-01T16:07:46.784Z,5.63
2022-10-01T16:10:27.933Z,3.92
2022-10-01T16:12:54.229Z,4.30
2022-10-01T16:15:27.565Z,4.40
2022-10-01T16:17:54.959Z,4.05
2022-10-01T16:20:37.743Z,3.42
2022-10-01T16:23:22.963Z,3.90
2022-10-01T16:25:49.214Z,5.53
2022-10-01T16:28:26.222Z,4.30
2022-10-01T16:30:52.645Z,4.78
2022-10-01T16:33:19.046Z,4.03
2022-10-01T16:35:47.703Z,4.38
2022-10-01T16:38:14.414Z,4.93
2022-10-01T16:40:44.611Z,4.80
2022-10-01T16:43:24.241Z,4.18
2022-10-01T16:45:50.810Z,3.95
2022-10-01T16:48:19.554Z,3.50
2022-10-01T16:50:46.792Z,4.82
2022-10-01T16:53:15.100Z,4.22
2022-10-01T16:55:41.805Z,4.78
2022-10-01T16:58:08.186Z,4.13
2022-10-01T17:00:37.125Z,4.15
2022-10-01T17:03:04.839Z,4.38
2022-10-01T17:05:32.283Z,4.40
2022-10-01T17:08:01.077Z,4.25
2022-10-01T17:10:31.585Z,3.45
2022-10-01T17:12:59.443Z,4.30
2022-10-01T17:15:27.059Z,4.60
2022-10-01T17:17:54.227Z,4.40
2022-10-01T17:20:22.012Z,4.03
2022-10-01T17:22:48.969Z,5.47
2022-10-01T17:25:16.222Z,3.80
2022-10-01T17:27:42.494Z,3.85
2022-10-01T17:30:09.151Z,4.03
2022-10-01T17:32:37.192Z,3.72
2022-10-01T17:35:04.243Z,3.53
2022-10-01T17:37:30.510Z,3.80
2022-10-01T17:39:56.782Z,4.05
2022-10-01T17:42:23.128Z,5.15
2022-10-01T17:44:49.787Z,3.40
2022-10-01T17:47:16.033Z,4.68
2022-10-01T17:49:43.671Z,4.55
2022-10-01T17:52:10.359Z,4.97
2022-10-01T17:54:37.328Z,4.68
2022-10-01T17:57:03.816Z,5.30
2022-10-01T17:59:30.236Z,5.28
2022-10-01T18:01:57.260Z,4.68
2022-10-01T18:04:25.768Z,5.90
2022-10-01T18:06:57.930Z,7.45
2022-10-01T18:09:25.887Z,4.85
2022-10-01T18:11:52.200Z,6.30
2022-10-01T18:14:18.495Z,4.93
2022-10-01T18:16:44.824Z,6.63
2022-10-01T18:21:58.647Z,5.03
2022-10-01T18:24:25.571Z,5.63
2022-10-01T18:26:52.146Z,5.43
2022-10-01T18:29:19.670Z,5.43
2022-10-01T18:31:45.996Z,6.30
2022-10-01T18:34:18.128Z,6.97
2022-10-01T18:36:53.462Z,5.65
2022-10-01T18:41:46.192Z,4.97
2022-10-01T18:44:18.018Z,5.55
2022-10-01T18:46:49.606Z,5.20
2022-10-01T18:49:15.860Z,5.63
2022-10-01T18:51:51.191Z,5.50
2022-10-01T18:56:49.105Z,4.32
2022-10-01T18:59:28.810Z,4.88
2022-10-01T19:02:04.283Z,4.03
2022-10-01T19:04:33.931Z,4.13
2022-10-01T19:07:00.363Z,5.30
2022-10-01T19:09:29.530Z,4.88
2022-10-01T19:12:04.384Z,4.75
2022-10-01T19:14:39.566Z,5.10
2022-10-01T19:17:14.006Z,3.83
2022-10-01T19:19:52.687Z,4.60
2022-10-01T19:22:54.018Z,4.38
2022-10-01T19:25:25.487Z,5.63
2022-10-01T19:27:54.860Z,4.50
2022-10-01T19:30:21.379Z,4.97
2022-10-01T19:32:57.961Z,5.18
2022-10-01T19:35:31.907Z,4.90
2022-10-01T19:38:03.714Z,6.75
2022-10-01T19:40:46.148Z,6.68
2022-10-01T19:43:31.280Z,5.53
2022-10-01T19:46:15.265Z,6.00
2022-10-01T19:48:54.801Z,6.45
2022-10-01T19:51:23.035Z,5.68
2022-10-01T19:53:59.976Z,7.05
2022-10-01T19:56:30.755Z,5.50
2022-10-01T19:59:19.181Z,7.25
2022-10-01T20:01:46.124Z,5.40
2022-10-01T20:04:21.240Z,6.32
2022-10-01T20:06:47.855Z,5.80
2022-10-01T20:09:14.460Z,5.95
2022-10-01T20:11:49.972Z,7.07
2022-10-01T20:14:40.195Z,6.47
2022-10-01T20:17:14.517Z,7.20
2022-10-01T20:19:49.384Z,8.23
2022-10-01T20:22:19.900Z,6.22
2022-10-01T20:25:01.656Z,6.57
2022-10-01T20:27:47.094Z,9.13
2022-10-01T20:30:17.717Z,8.05
2022-10-01T20:33:07.976Z,8.32
2022-10-01T20:35:36.949Z,7.65
2022-10-01T20:38:09.007Z,6.28
2022-10-01T20:40:39.231Z,6.80
2022-10-01T20:43:05.702Z,7.28
2022-10-01T20:45:33.932Z,9.75
2022-10-01T20:48:21.180Z,7.30
2022-10-01T20:50:50.438Z,6.22
2022-10-01T20:53:20.158Z,7.22
2022-10-01T20:55:52.596Z,7.65
2022-10-01T20:58:45.386Z,11.30
2022-10-01T21:01:17.567Z,7.80
2022-10-01T21:03:46.444Z,9.35
2022-10-01T21:06:17.159Z,9.18
2022-10-01T21:08:46.465Z,14.23
2022-10-01T21:11:18.639Z,11.05
2022-10-01T21:13:50.688Z,8.75
2022-10-01T21:16:36.114Z,10.32
2022-10-01T21:19:17.278Z,15.38
2022-10-01T21:21:49.212Z,14.15
2022-10-01T21:24:36.626Z,12.55
2022-10-01T21:27:21.078Z,14.00
2022-10-01T21:30:06.202Z,9.40
2022-10-01T21:32:33.344Z,10.00
2022-10-01T21:35:08.860Z,9.93
2022-10-01T21:37:39.396Z,7.18
2022-10-01T21:40:11.231Z,5.43
2022-10-01T21:42:40.484Z,6.13
2022-10-01T21:45:20.017Z,5.47
2022-10-01T21:47:53.472Z,5.50
2022-10-01T21:50:35.413Z,5.35
2022-10-01T21:53:07.691Z,6.25
2022-10-01T21:55:33.964Z,5.95
2022-10-01T21:58:01.239Z,6.70
2022-10-01T22:00:29.511Z,7.18
2022-10-01T22:03:14.409Z,6.65
2022-10-01T22:06:03.348Z,6.32
2022-10-01T22:08:42.203Z,6.10
2022-10-01T22:11:12.102Z,6.95
2022-10-01T22:13:41.317Z,7.93
2022-10-01T22:16:09.900Z,6.82
2022-10-01T22:18:45.492Z,7.50
2022-10-01T22:21:19.782Z,6.88
2022-10-01T22:23:48.584Z,6.95
2022-10-01T22:26:18.144Z,6.85
2022-10-01T22:28:47.027Z,7.10
2022-10-01T22:31:22.624Z,7.78
2022-10-01T22:33:52.568Z,7.22
2022-10-01T22:36:23.427Z,8.00
2022-10-01T22:38:55.772Z,7.53
2022-10-01T22:41:44.409Z,7.78
2022-10-01T22:44:14.824Z,6.68
2022-10-01T22:46:59.952Z,6.25
2022-10-01T22:49:26.194Z,7.97
2022-10-01T22:52:01.729Z,7.28
2022-10-01T22:54:34.749Z,7.18
2022-10-01T22:57:10.289Z,7.25
2022-10-01T22:59:59.695Z,6.53
2022-10-01T23:02:33.033Z,6.97
2022-10-01T23:05:08.569Z,7.28
2022-10-01T23:07:49.205Z,7.65
2022-10-01T23:10:21.732Z,7.70
2022-10-01T23:12:50.756Z,7.25
2022-10-01T23:15:36.131Z,8.23
2022-10-01T23:18:05.216Z,8.02
2022-10-01T23:20:32.915Z,6.68
2022-10-01T23:23:07.189Z,5.80
2022-10-01T23:25:52.050Z,6.55
2022-10-01T23:28:18.513Z,6.90
2022-10-01T23:30:56.871Z,5.00
2022-10-01T23:33:23.148Z,5.05
2022-10-01T23:35:49.397Z,5.47
2022-10-01T23:38:24.427Z,5.35
2022-10-01T23:40:52.182Z,5.15
2022-10-01T23:43:26.969Z,6.25
2022-10-01T23:45:56.621Z,5.68
2022-10-01T23:48:51.987Z,5.63
2022-10-01T23:51:37.936Z,5.90
2022-10-01T23:54:04.178Z,5.68
2022-10-01T23:56:48.603Z,5.90
2022-10-01T23:59:29.630Z,6.90
